X  Close Metar Aviation Weather Data     YMML Melbourne International Airport
Temperature
5°C Temperature
2°C Dewpoint
81% Humidity



Wind
19 KM/H
12 MPH
5 M/S
10 KTS



10°
N
Current Conditions

Partly Cloudy Partly Cloudy
Pressure 1030.92 (hPa) - 30.44 (inHg)
Visibility 6.2 (mile) - 10 (km)
Airport
Airport-code YMML

Location: Melbourne International Airport
Distance: 18 (km)

Metar:
YMML 272030Z 01010KT 9999 FEW033 SCT300 05/02 Q1031

Time: 28-06-2022 06:30 AEST